WetterOnline ( https://www.wetteronline.de )

Wetter aktuell Putbus/Rügen

Aktuelles Wetter: Putbus/Rügen (41m)

6-stündlich | Neueste Meldungen
Ortszeit Temperatur Wetter
So, 16.05. 2:00 9.6° C bedeckt
Sa, 15.05. 20:00 10.4° C wolkig
Sa, 15.05. 14:00 13.6° C wolkig
Sa, 15.05. 8:00 9.0° C bedeckt
Sa, 15.05. 2:00 9.2° C bedeckt
Fr, 14.05. 20:00 11.5° C bewölkt
Fr, 14.05. 14:00 11.2° C bedeckt
Fr, 14.05. 8:00 8.9° C bedeckt
Ortszeit Temperatur Wetter
So, 16.05. 6:00 10.1° C bewölkt
So, 16.05. 5:30 10.2° C bewölkt
So, 16.05. 5:20 10.2° C bewölkt
So, 16.05. 5:10 10.1° C bewölkt
So, 16.05. 5:00 9.6° C bewölkt
So, 16.05. 4:50 9.6° C bewölkt
So, 16.05. 4:30 9.0° C leicht bewölkt
So, 16.05. 4:00 9.1° C wolkig
Ortszeit Relative Feuchte Sichtweite
So, 16.05. 2:00 97% 15 km
Sa, 15.05. 20:00 94% 10 km
Sa, 15.05. 14:00 65% 29 km
Sa, 15.05. 8:00 88% 20 km
Sa, 15.05. 2:00 89% 20 km
Fr, 14.05. 20:00 86% 18 km
Fr, 14.05. 14:00 82% 40 km
Fr, 14.05. 8:00 93% 9 km
Ortszeit Relative Feuchte Sichtweite
So, 16.05. 6:00 92% 55 km
So, 16.05. 5:30 90% 60 km
So, 16.05. 5:20 90% -
So, 16.05. 5:10 92% -
So, 16.05. 5:00 95% 35 km
So, 16.05. 4:50 95% -
So, 16.05. 4:30 97% 30 km
So, 16.05. 4:00 95% 15 km
Ortszeit Niederschlagsmenge Niederschlagsart
So, 16.05. 2:00 0.1 l/m2 in 6 Std. Regen
Sa, 15.05. 20:00 3 l/m2 in 12 Std. Regen
Sa, 15.05. 14:00 0.0 l/m2 in 6 Std. -
Sa, 15.05. 8:00 0.1 l/m2 in 12 Std. Regen
Sa, 15.05. 2:00 0.1 l/m2 in 6 Std. Regen
Fr, 14.05. 20:00 0.1 l/m2 in 12 Std. Regen
Fr, 14.05. 14:00 0.0 l/m2 in 6 Std. -
Fr, 14.05. 8:00 0.0 l/m2 in 12 Std. -
Ortszeit Niederschlagsmenge Niederschlagsart
So, 16.05. 6:00 keine Meldung -
So, 16.05. 5:30 0.0 l/m2 in 1 Std. -
So, 16.05. 5:20 keine Meldung -
So, 16.05. 5:10 keine Meldung -
So, 16.05. 5:00 0.0 l/m2 in 1 Std. -
So, 16.05. 4:50 keine Meldung -
So, 16.05. 4:30 0.0 l/m2 in 1 Std. -
So, 16.05. 4:00 0.1 l/m2 in 1 Std. -
Ortszeit Stärke Spitze Richtung
km/h Bft. km/h Grad Sektor
So, 16.05. 2:00 7 2 22 170° S
Sa, 15.05. 20:00 13 3 26 130° SO
Sa, 15.05. 14:00 13 3 31 240° SW
Sa, 15.05. 8:00 17 3 30 240° SW
Sa, 15.05. 2:00 19 3 31 260° W
Fr, 14.05. 20:00 19 3 24 260° W
Fr, 14.05. 14:00 7 2 18 50° NO
Fr, 14.05. 8:00 11 2 18 280° W
Ortszeit Stärke Spitze Richtung
km/h Bft. km/h Grad Sektor
So, 16.05. 6:00 11 2 22 170° S
So, 16.05. 5:30 11 2 22 160° S
So, 16.05. 5:20 11 2 - 160° S
So, 16.05. 5:10 13 3 - 160° S
So, 16.05. 5:00 9 2 17 160° S
So, 16.05. 4:50 9 2 - 160° S
So, 16.05. 4:30 7 2 11 160° S
So, 16.05. 4:00 9 2 17 160° S
Ortszeit Untergrenze Bedeckung Gattung
total tief tief mittel hoch
So, 16.05. 2:00 4800 m 8/8 8/8 - - -
Sa, 15.05. 20:00 1380 m 7/8 1/8 - - -
Sa, 15.05. 14:00 750 m 5/8 5/8 - - -
Sa, 15.05. 8:00 270 m 8/8 8/8 - - -
Sa, 15.05. 2:00 210 m 8/8 8/8 - - -
Fr, 14.05. 20:00 270 m 7/8 7/8 - - -
Fr, 14.05. 14:00 2400 m 8/8 8/8 - - -
Fr, 14.05. 8:00 3600 m 8/8 8/8 - - -
Ortszeit Bedeckungsgrad in Achtel und Wolkenuntergrenze
So, 16.05. 6:00 6(1500m) 7(2400m) 8(3000m)
So, 16.05. 5:30 3(1500m) 6(2400m) 8(3000m)
So, 16.05. 5:20 3(1500m) 6(2400m) 8(3000m)
So, 16.05. 5:10 4(1500m) 6(2400m) 8(3000m)
So, 16.05. 5:00 2(1500m) 6(2400m) 8(3000m)
So, 16.05. 4:50 2(1500m) 6(2400m) 8(3000m)
So, 16.05. 4:30 1(2100m) 4(4200m)
So, 16.05. 4:00 3(1500m) 7(4200m)
Ortszeit Luftdruck NN (hPa) Tendenz (hPa in 3 Std.)
So, 16.05. 2:00 1003 - 0,8
Sa, 15.05. 20:00 1004 - 0,9
Sa, 15.05. 14:00 1006 - 0,8
Sa, 15.05. 8:00 1006 + 0,5
Sa, 15.05. 2:00 1005 + 0,1
Fr, 14.05. 20:00 1005 + 0,4
Fr, 14.05. 14:00 1004 + 1,0
Fr, 14.05. 8:00 1002 + 0,7
Ortszeit Luftdruck NN (hPa) Tendenz (hPa in 3 Std.)
So, 16.05. 6:00 1002 - 0,3
So, 16.05. 5:30 1002 - 0,6
So, 16.05. 5:20 1002 keine Meldung
So, 16.05. 5:10 1002 keine Meldung
So, 16.05. 5:00 1002 - 0,6
So, 16.05. 4:50 1002 keine Meldung
So, 16.05. 4:30 1002 - 0,6
So, 16.05. 4:00 1002 - 0,7
Ortszeit Schneehöhe (cm)
So, 16.05. 2:00 0
Sa, 15.05. 20:00 0
Sa, 15.05. 14:00 0
Sa, 15.05. 8:00 0
Sa, 15.05. 2:00 0
Fr, 14.05. 20:00 0
Fr, 14.05. 14:00 0
Fr, 14.05. 8:00 0
Ortszeit Schneehöhe (cm)
So, 16.05. 6:00 -
So, 16.05. 5:30 0
So, 16.05. 5:20 0
So, 16.05. 5:10 0
So, 16.05. 5:00 0
So, 16.05. 4:50 0
So, 16.05. 4:30 0
So, 16.05. 4:00 0
Link zu dieser Seite / Seite empfehlen

Das Wetter in ...